YADG weather

Aldinga Airport
Aldinga, South Australia, Australia

Public forecast

Using degrees Celsius for public forecast. Weather courtesy of forecast.io.

Closest aviation weather report (METAR) to Aldinga Airport

Closest report is Adelaide International Airport, 20.8 nm (38.5 km) N. Retrieved 2020/01/27 08:30 UTC (0 seconds ago):

YPAD 270830Z 18015KT CAVOK 26/12 Q1013 FM1000 16010KT CAVOK

Closest aviation forecast (TAF) to Aldinga Airport

Closest forecast is Adelaide International Airport, 20.8 nm (38.5 km) N. Retrieved 2020/01/27 06:00 UTC (2 hours ago):

TAF YPAD 270522Z 2706/2812 22018KT CAVOK FM271000 16010KT CAVOK FM271500 VRB03KT CAVOK FM280000 23012KT CAVOK FM280900 14008KT CAVOK